createdAt,value
2019-01-28T00:01:14.329Z,8.05
2019-01-28T00:03:43.980Z,7.28
2019-01-28T00:06:13.417Z,7.58
2019-01-28T00:08:42.846Z,7.58
2019-01-28T00:11:12.287Z,8.10
2019-01-28T00:13:41.684Z,8.01
2019-01-28T00:16:11.314Z,7.56
2019-01-28T00:18:40.701Z,7.44
2019-01-28T00:21:10.108Z,7.81
2019-01-28T00:23:39.529Z,7.36
2019-01-28T00:26:09.077Z,7.11
2019-01-28T00:28:38.514Z,7.14
2019-01-28T00:31:07.950Z,7.02
2019-01-28T00:33:37.319Z,6.60
2019-01-28T00:36:06.742Z,7.13
2019-01-28T00:38:36.101Z,6.73
2019-01-28T00:41:05.714Z,6.91
2019-01-28T00:43:35.126Z,6.32
2019-01-28T00:46:04.736Z,6.82
2019-01-28T00:48:34.050Z,7.40
2019-01-28T00:51:03.552Z,6.77
2019-01-28T00:53:32.946Z,7.33
2019-01-28T00:56:02.293Z,6.53
2019-01-28T00:58:32.704Z,6.44
2019-01-28T01:01:02.370Z,7.49
2019-01-28T01:03:31.871Z,7.46
2019-01-28T01:06:01.399Z,7.31
2019-01-28T01:08:30.760Z,7.14
2019-01-28T01:11:00.227Z,7.40
2019-01-28T01:13:29.584Z,7.14
2019-01-28T01:15:59.044Z,6.88
2019-01-28T01:18:28.394Z,7.67
2019-01-28T01:20:57.831Z,7.57
2019-01-28T01:23:27.431Z,7.30
2019-01-28T01:25:56.801Z,6.82
2019-01-28T01:28:26.153Z,7.46
2019-01-28T01:30:55.534Z,7.86
2019-01-28T01:33:24.966Z,7.74
2019-01-28T01:35:54.410Z,7.17
2019-01-28T01:38:23.853Z,6.84
2019-01-28T01:40:53.216Z,6.18
2019-01-28T01:43:22.627Z,6.22
2019-01-28T01:45:52.010Z,6.65
2019-01-28T01:48:21.449Z,6.39
2019-01-28T01:50:50.878Z,5.98
2019-01-28T01:53:20.232Z,5.64
2019-01-28T01:55:49.645Z,5.97
2019-01-28T01:58:18.983Z,6.40
2019-01-28T02:00:48.401Z,5.94
2019-01-28T02:03:17.764Z,5.90
2019-01-28T02:05:47.204Z,6.06
2019-01-28T02:08:16.561Z,5.73
2019-01-28T02:10:45.997Z,5.94
2019-01-28T02:13:15.362Z,5.71
2019-01-28T02:15:44.759Z,5.80
2019-01-28T02:18:14.108Z,6.31
2019-01-28T02:20:43.472Z,6.23
2019-01-28T02:23:12.848Z,5.65
2019-01-28T02:25:42.270Z,6.33
2019-01-28T02:28:11.646Z,6.07
2019-01-28T02:30:41.007Z,6.58
2019-01-28T02:33:10.375Z,6.23
2019-01-28T02:35:39.730Z,6.24
2019-01-28T02:38:21.354Z,6.49
2019-01-28T02:40:50.827Z,6.33
2019-01-28T02:43:20.191Z,5.94
2019-01-28T02:45:49.611Z,5.64
2019-01-28T02:48:18.975Z,5.67
2019-01-28T02:50:48.340Z,5.80
2019-01-28T02:53:17.751Z,5.93
2019-01-28T02:55:47.123Z,6.01
2019-01-28T02:58:16.454Z,6.15
2019-01-28T03:00:45.829Z,5.49
2019-01-28T03:03:15.213Z,5.77
2019-01-28T03:05:44.677Z,5.97
2019-01-28T03:08:13.965Z,5.77
2019-01-28T03:10:43.418Z,5.89
2019-01-28T03:13:12.782Z,5.93
2019-01-28T03:15:42.212Z,5.54
2019-01-28T03:18:11.923Z,5.54
2019-01-28T03:20:41.362Z,5.49
2019-01-28T03:23:11.525Z,5.73
2019-01-28T03:25:40.929Z,6.20
2019-01-28T03:28:10.297Z,5.44
2019-01-28T03:30:39.675Z,5.57
2019-01-28T03:33:09.057Z,6.23
2019-01-28T03:35:38.478Z,6.43
2019-01-28T03:38:07.960Z,6.40
2019-01-28T03:40:37.400Z,6.56
2019-01-28T03:43:06.914Z,6.61
2019-01-28T03:45:36.277Z,6.41
2019-01-28T03:48:05.767Z,6.57
2019-01-28T03:50:35.129Z,6.66
2019-01-28T03:53:04.635Z,6.72
2019-01-28T03:55:34.040Z,6.78
2019-01-28T03:58:03.574Z,6.73
2019-01-28T04:00:33.263Z,6.78
2019-01-28T04:03:02.697Z,6.65
2019-01-28T04:05:32.131Z,6.56
2019-01-28T04:08:01.486Z,6.37
2019-01-28T04:10:30.952Z,6.29
2019-01-28T04:13:00.365Z,6.09
2019-01-28T04:15:29.878Z,6.48
2019-01-28T04:17:59.235Z,6.62
2019-01-28T04:20:28.667Z,6.69
2019-01-28T04:22:58.060Z,6.65
2019-01-28T04:25:27.403Z,6.76
2019-01-28T04:27:56.854Z,6.76
2019-01-28T04:30:26.617Z,6.67
2019-01-28T04:32:56.040Z,6.74
2019-01-28T04:35:25.476Z,6.82
2019-01-28T04:37:54.815Z,6.80
2019-01-28T04:40:24.295Z,6.76
2019-01-28T04:42:53.715Z,6.70
2019-01-28T04:45:23.201Z,6.77
2019-01-28T04:47:52.654Z,6.59
2019-01-28T04:50:22.124Z,6.87
2019-01-28T04:52:51.651Z,6.68
2019-01-28T04:55:21.381Z,6.57
2019-01-28T04:57:50.745Z,6.02
2019-01-28T05:00:22.123Z,6.25
2019-01-28T05:02:51.543Z,6.47
2019-01-28T05:05:21.151Z,6.57
2019-01-28T05:07:50.590Z,6.70
2019-01-28T05:10:20.095Z,6.62
2019-01-28T05:12:49.546Z,6.16
2019-01-28T05:15:18.994Z,6.15
2019-01-28T05:17:48.493Z,6.10
2019-01-28T05:20:19.091Z,6.11
2019-01-28T05:22:48.546Z,5.92
2019-01-28T05:25:17.981Z,5.69
2019-01-28T05:27:47.613Z,6.22
2019-01-28T05:30:18.994Z,6.37
2019-01-28T05:32:48.461Z,5.80
2019-01-28T05:35:18.527Z,5.99
2019-01-28T05:37:47.981Z,6.10
2019-01-28T05:40:19.230Z,6.43
2019-01-28T05:42:48.609Z,6.46
2019-01-28T05:45:18.311Z,5.87
2019-01-28T05:47:47.838Z,6.18
2019-01-28T05:50:17.315Z,6.25
2019-01-28T05:52:48.051Z,6.33
2019-01-28T05:55:17.724Z,6.50
2019-01-28T05:57:47.252Z,6.44
2019-01-28T06:00:19.167Z,6.50
2019-01-28T06:02:48.531Z,6.51
2019-01-28T06:05:18.277Z,6.60
2019-01-28T06:07:47.719Z,6.61
2019-01-28T06:10:17.252Z,6.59
2019-01-28T06:12:46.765Z,6.64
2019-01-28T06:15:16.884Z,6.75
2019-01-28T06:17:48.350Z,6.63
2019-01-28T06:20:19.385Z,6.46
2019-01-28T06:22:48.839Z,6.52
2019-01-28T06:25:18.308Z,6.63
2019-01-28T06:27:47.804Z,6.57
2019-01-28T06:30:22.723Z,6.67
2019-01-28T06:32:52.185Z,6.75
2019-01-28T06:35:21.682Z,6.57
2019-01-28T06:37:51.196Z,6.56
2019-01-28T06:40:25.922Z,6.35
2019-01-28T06:42:55.440Z,6.59
2019-01-28T06:45:24.987Z,6.16
2019-01-28T06:47:54.445Z,6.47
2019-01-28T06:50:24.003Z,6.55
2019-01-28T06:52:53.563Z,6.51
2019-01-28T06:55:23.012Z,6.41
2019-01-28T06:57:52.461Z,6.67
2019-01-28T07:00:24.442Z,6.57
2019-01-28T07:02:53.870Z,6.54
2019-01-28T07:05:23.360Z,6.62
2019-01-28T07:07:52.738Z,6.64
2019-01-28T07:10:22.494Z,6.75
2019-01-28T07:12:51.973Z,6.66
2019-01-28T07:15:21.854Z,6.58
2019-01-28T07:17:54.936Z,6.80
2019-01-28T07:20:24.943Z,6.73
2019-01-28T07:22:54.376Z,6.73
2019-01-28T07:25:24.041Z,7.94
2019-01-28T07:27:53.498Z,8.06
2019-01-28T07:30:25.832Z,8.08
2019-01-28T07:32:55.186Z,7.33
2019-01-28T07:35:24.730Z,7.12
2019-01-28T07:37:54.180Z,7.06
2019-01-28T07:40:23.766Z,7.05
2019-01-28T07:42:53.247Z,6.82
2019-01-28T07:45:30.595Z,6.75
2019-01-28T07:48:03.070Z,6.78
2019-01-28T07:50:31.102Z,6.50
2019-01-28T07:53:00.600Z,6.61
2019-01-28T07:55:29.968Z,6.56
2019-01-28T07:57:59.377Z,6.47
2019-01-28T08:00:29.554Z,6.49
2019-01-28T08:02:59.076Z,6.69
2019-01-28T08:05:28.568Z,6.57
2019-01-28T08:07:58.047Z,6.69
2019-01-28T08:10:27.399Z,6.74
2019-01-28T08:12:58.477Z,6.80
2019-01-28T08:15:28.302Z,6.61
2019-01-28T08:17:57.682Z,6.69
2019-01-28T08:20:27.200Z,6.68
2019-01-28T08:22:56.669Z,6.79
2019-01-28T08:25:26.279Z,6.81
2019-01-28T08:27:55.715Z,6.82
2019-01-28T08:30:30.101Z,6.88
2019-01-28T08:32:59.694Z,6.90
2019-01-28T08:35:30.578Z,6.88
2019-01-28T08:38:00.091Z,6.91
2019-01-28T08:40:29.547Z,6.99
2019-01-28T08:42:59.029Z,6.95
2019-01-28T08:45:28.481Z,6.89
2019-01-28T08:47:57.909Z,6.77
2019-01-28T08:50:27.449Z,6.89
2019-01-28T08:52:56.875Z,6.91
2019-01-28T08:55:26.666Z,6.96
2019-01-28T08:57:56.112Z,6.75
2019-01-28T09:00:39.379Z,6.67
2019-01-28T09:03:08.856Z,6.87
2019-01-28T09:05:38.267Z,6.93
2019-01-28T09:08:08.698Z,6.81
2019-01-28T09:10:38.299Z,6.42
2019-01-28T09:13:08.350Z,6.11
2019-01-28T09:15:38.199Z,6.72
2019-01-28T09:18:09.366Z,6.74
2019-01-28T09:20:38.862Z,6.90
2019-01-28T09:23:08.392Z,6.87
2019-01-28T09:25:37.991Z,6.77
2019-01-28T09:28:07.536Z,6.53
2019-01-28T09:30:37.162Z,6.93
2019-01-28T09:33:06.650Z,6.87
2019-01-28T09:35:36.230Z,6.63
2019-01-28T09:38:05.911Z,6.91
2019-01-28T09:40:35.657Z,7.02
2019-01-28T09:43:05.622Z,6.91
2019-01-28T09:45:37.422Z,6.44
2019-01-28T09:48:07.523Z,7.01
2019-01-28T09:50:36.997Z,6.81
2019-01-28T09:53:06.542Z,6.94
2019-01-28T09:55:35.998Z,7.07
2019-01-28T09:58:05.983Z,6.83
2019-01-28T10:00:41.119Z,7.17
2019-01-28T10:03:10.539Z,6.87
2019-01-28T10:05:39.945Z,6.97
2019-01-28T10:08:09.717Z,7.14
2019-01-28T10:10:39.063Z,7.32
2019-01-28T10:13:08.647Z,7.27
2019-01-28T10:15:38.074Z,7.28
2019-01-28T10:18:07.777Z,7.25
2019-01-28T10:20:44.653Z,7.06
2019-01-28T10:23:13.858Z,7.16
2019-01-28T10:25:43.363Z,7.39
2019-01-28T10:28:12.698Z,7.06
2019-01-28T10:30:42.809Z,7.34
2019-01-28T10:33:12.537Z,7.69
2019-01-28T10:35:43.683Z,7.56
2019-01-28T10:38:13.190Z,7.50
2019-01-28T10:40:42.836Z,6.95
2019-01-28T10:43:12.372Z,7.48
2019-01-28T10:45:41.818Z,7.35
2019-01-28T10:48:12.011Z,7.18
2019-01-28T10:50:42.652Z,7.37
2019-01-28T10:53:12.333Z,7.36
2019-01-28T10:55:41.756Z,7.19
2019-01-28T10:58:11.156Z,7.21
2019-01-28T11:00:46.276Z,7.19
2019-01-28T11:03:17.862Z,7.15
2019-01-28T11:05:47.344Z,7.07
2019-01-28T11:08:16.765Z,7.20
2019-01-28T11:10:46.215Z,7.21
2019-01-28T11:13:15.675Z,7.22
2019-01-28T11:15:45.186Z,7.10
2019-01-28T11:18:26.078Z,7.23
2019-01-28T11:20:55.489Z,7.44
2019-01-28T11:23:25.030Z,7.40
2019-01-28T11:25:54.503Z,6.84
2019-01-28T11:28:23.921Z,6.85
2019-01-28T11:30:58.427Z,6.99
2019-01-28T11:33:27.867Z,7.16
2019-01-28T11:36:04.768Z,6.93
2019-01-28T11:38:28.670Z,7.08
2019-01-28T11:40:58.121Z,7.00
2019-01-28T11:43:27.598Z,6.88
2019-01-28T11:46:05.005Z,6.89
2019-01-28T11:48:34.440Z,6.82
2019-01-28T11:51:04.133Z,7.08
2019-01-28T11:53:38.706Z,7.33
2019-01-28T11:56:08.282Z,7.01
2019-01-28T11:58:37.632Z,7.12
2019-01-28T12:01:27.863Z,7.03
2019-01-28T12:03:57.346Z,7.03
2019-01-28T12:06:26.886Z,6.83
2019-01-28T12:08:56.425Z,6.89
2019-01-28T12:11:25.886Z,7.20
2019-01-28T12:13:55.367Z,6.87
2019-01-28T12:16:24.717Z,7.07
2019-01-28T12:18:54.173Z,7.14
2019-01-28T12:21:23.592Z,7.07
2019-01-28T12:23:53.163Z,6.70
2019-01-28T12:26:23.028Z,6.92
2019-01-28T12:28:52.438Z,7.02
2019-01-28T12:31:21.827Z,6.93
2019-01-28T12:33:51.208Z,7.20
2019-01-28T12:36:20.608Z,7.17
2019-01-28T12:38:50.236Z,7.02
2019-01-28T12:41:19.660Z,7.00
2019-01-28T12:43:49.167Z,7.12
2019-01-28T12:46:18.599Z,7.12
2019-01-28T12:48:48.045Z,7.08
2019-01-28T12:51:17.471Z,7.09
2019-01-28T12:53:46.892Z,7.27
2019-01-28T12:56:16.220Z,6.73
2019-01-28T12:58:45.584Z,6.96
2019-01-28T13:01:15.064Z,6.95
2019-01-28T13:03:44.540Z,7.08
2019-01-28T13:06:14.018Z,7.25
2019-01-28T13:08:43.379Z,7.13
2019-01-28T13:11:12.758Z,7.07
2019-01-28T13:13:42.274Z,7.00
2019-01-28T13:16:11.644Z,7.38
2019-01-28T13:18:41.015Z,7.22
2019-01-28T13:21:10.391Z,7.23
2019-01-28T13:23:39.826Z,7.44
2019-01-28T13:26:09.349Z,6.88
2019-01-28T13:28:38.783Z,6.96
2019-01-28T13:31:08.250Z,7.28
2019-01-28T13:33:37.866Z,7.30
2019-01-28T13:36:09.571Z,7.21
2019-01-28T13:38:38.757Z,7.28
2019-01-28T13:41:08.185Z,6.90
2019-01-28T13:43:37.625Z,7.01
2019-01-28T13:46:07.126Z,6.53
2019-01-28T13:48:36.572Z,6.69
2019-01-28T13:51:06.541Z,6.22
2019-01-28T13:53:36.366Z,6.73
2019-01-28T13:56:05.852Z,6.98
2019-01-28T13:58:35.289Z,7.02
2019-01-28T14:01:05.208Z,6.87
2019-01-28T14:03:34.608Z,6.80
2019-01-28T14:06:04.151Z,6.69
2019-01-28T14:08:33.530Z,6.79
2019-01-28T14:11:02.899Z,6.82
2019-01-28T14:13:32.297Z,6.85
2019-01-28T14:16:01.999Z,6.73
2019-01-28T14:18:31.399Z,6.55
2019-01-28T14:21:03.384Z,6.74
2019-01-28T14:23:32.810Z,6.42
2019-01-28T14:26:02.377Z,6.39
2019-01-28T14:28:31.831Z,6.69
2019-01-28T14:31:01.286Z,5.99
2019-01-28T14:33:30.705Z,6.37
2019-01-28T14:36:00.175Z,6.22
2019-01-28T14:38:29.574Z,6.13
2019-01-28T14:40:58.983Z,6.02
2019-01-28T14:43:28.391Z,5.56
2019-01-28T14:45:57.837Z,5.98
2019-01-28T14:48:27.289Z,5.53
2019-01-28T14:50:56.721Z,5.75
2019-01-28T14:53:27.174Z,5.79
2019-01-28T14:55:56.601Z,6.03
2019-01-28T14:58:25.962Z,5.97
2019-01-28T15:00:55.501Z,5.61
2019-01-28T15:03:24.932Z,6.01
2019-01-28T15:05:54.407Z,6.04
2019-01-28T15:08:23.953Z,5.30
2019-01-28T15:10:53.492Z,5.26
2019-01-28T15:13:22.791Z,5.07
2019-01-28T15:15:52.281Z,5.83
2019-01-28T15:18:21.795Z,5.60
2019-01-28T15:20:51.185Z,5.38
2019-01-28T15:23:20.658Z,5.50
2019-01-28T15:25:50.087Z,5.26
2019-01-28T15:28:19.507Z,5.63
2019-01-28T15:30:49.107Z,6.03
2019-01-28T15:33:18.540Z,5.53
2019-01-28T15:35:47.874Z,5.29
2019-01-28T15:38:17.322Z,5.72
2019-01-28T15:40:46.845Z,6.24
2019-01-28T15:43:16.347Z,6.07
2019-01-28T15:45:45.822Z,6.35
2019-01-28T15:48:15.388Z,5.49
2019-01-28T15:50:44.849Z,5.76
2019-01-28T15:53:14.309Z,5.73
2019-01-28T15:55:43.757Z,5.66
2019-01-28T15:58:13.755Z,6.22
2019-01-28T16:00:45.155Z,5.71
2019-01-28T16:03:15.071Z,5.69
2019-01-28T16:05:44.438Z,5.64
2019-01-28T16:08:13.917Z,5.60
2019-01-28T16:10:43.355Z,5.79
2019-01-28T16:13:12.817Z,5.16
2019-01-28T16:15:44.419Z,4.92
2019-01-28T16:18:16.365Z,5.22
2019-01-28T16:20:45.841Z,5.78
2019-01-28T16:23:15.455Z,5.57
2019-01-28T16:25:44.925Z,5.65
2019-01-28T16:28:14.378Z,4.94
2019-01-28T16:30:45.056Z,4.85
2019-01-28T16:33:14.496Z,5.43
2019-01-28T16:35:43.936Z,4.70
2019-01-28T16:38:15.979Z,5.19
2019-01-28T16:40:45.509Z,5.45
2019-01-28T16:43:15.082Z,4.92
2019-01-28T16:45:44.501Z,5.40
2019-01-28T16:48:13.982Z,5.26
2019-01-28T16:50:43.407Z,5.55
2019-01-28T16:53:12.921Z,4.64
2019-01-28T16:55:42.438Z,5.31
2019-01-28T16:58:11.827Z,5.45
2019-01-28T17:00:42.456Z,4.89
2019-01-28T17:03:12.998Z,4.78
2019-01-28T17:05:42.637Z,4.47
2019-01-28T17:08:12.074Z,4.43
2019-01-28T17:10:41.565Z,4.69
2019-01-28T17:13:11.005Z,4.85
2019-01-28T17:15:40.393Z,5.06
2019-01-28T17:18:09.782Z,5.14
2019-01-28T17:20:39.262Z,5.42
2019-01-28T17:23:08.943Z,5.33
2019-01-28T17:25:48.530Z,5.67
2019-01-28T17:28:18.194Z,5.21
2019-01-28T17:30:51.169Z,5.34
2019-01-28T17:33:20.525Z,5.40
2019-01-28T17:35:49.911Z,5.32
2019-01-28T17:38:19.343Z,5.45
2019-01-28T17:40:48.846Z,5.32
2019-01-28T17:43:18.615Z,4.89
2019-01-28T17:45:48.190Z,5.83
2019-01-28T17:48:17.642Z,5.24
2019-01-28T17:50:47.081Z,5.77
2019-01-28T17:53:16.523Z,5.43
2019-01-28T17:55:45.955Z,5.73
2019-01-28T17:58:15.376Z,5.81
2019-01-28T18:00:56.261Z,5.29
2019-01-28T18:03:25.674Z,5.62
2019-01-28T18:05:55.085Z,5.63
2019-01-28T18:08:24.518Z,5.38
2019-01-28T18:10:54.047Z,4.90
2019-01-28T18:13:23.662Z,5.14
2019-01-28T18:15:53.001Z,5.45
2019-01-28T18:18:22.500Z,5.24
2019-01-28T18:20:52.958Z,5.76
2019-01-28T18:23:28.506Z,5.58
2019-01-28T18:25:57.950Z,4.86
2019-01-28T18:28:27.372Z,5.01
2019-01-28T18:30:56.758Z,5.47
2019-01-28T18:33:26.520Z,5.86
2019-01-28T18:35:55.883Z,5.74
2019-01-28T18:38:25.251Z,5.29
2019-01-28T18:40:54.637Z,5.14
2019-01-28T18:43:24.117Z,5.15
2019-01-28T18:45:53.575Z,5.70
2019-01-28T18:48:23.003Z,5.90
2019-01-28T18:50:59.410Z,5.00
2019-01-28T18:53:23.570Z,4.95
2019-01-28T18:55:52.943Z,5.58
2019-01-28T18:58:22.325Z,5.59
2019-01-28T19:00:51.822Z,5.02
2019-01-28T19:03:21.238Z,5.70
2019-01-28T19:05:57.528Z,5.60
2019-01-28T19:08:48.782Z,5.55
2019-01-28T19:11:31.258Z,5.34
2019-01-28T19:14:11.462Z,4.95
2019-01-28T19:16:57.715Z,4.61
2019-01-28T19:19:34.589Z,4.67
2019-01-28T19:22:05.146Z,4.99
2019-01-28T19:24:35.287Z,5.01
2019-01-28T19:27:04.829Z,5.20
2019-01-28T19:29:34.236Z,5.23
2019-01-28T19:32:03.673Z,4.77
2019-01-28T19:34:34.780Z,5.10
2019-01-28T19:37:04.339Z,5.05
2019-01-28T19:39:33.867Z,5.19
2019-01-28T19:42:03.318Z,5.07
2019-01-28T19:44:32.703Z,5.09
2019-01-28T19:47:02.176Z,4.87
2019-01-28T19:49:31.504Z,4.84
2019-01-28T19:52:00.935Z,5.29
2019-01-28T19:54:30.314Z,4.83
2019-01-28T19:56:59.678Z,5.23
2019-01-28T19:59:29.038Z,5.09
2019-01-28T20:01:58.504Z,5.58
2019-01-28T20:04:27.867Z,4.78
2019-01-28T20:06:57.346Z,5.12
2019-01-28T20:09:26.975Z,5.51
2019-01-28T20:11:56.444Z,4.96
2019-01-28T20:14:25.873Z,5.45
2019-01-28T20:16:55.264Z,4.93
2019-01-28T20:19:24.661Z,5.03
2019-01-28T20:21:54.057Z,5.00
2019-01-28T20:24:23.412Z,4.89
2019-01-28T20:26:52.897Z,5.06
2019-01-28T20:29:22.323Z,5.37
2019-01-28T20:31:51.681Z,5.42
2019-01-28T20:34:21.078Z,5.35
2019-01-28T20:36:50.470Z,4.75
2019-01-28T20:39:19.812Z,5.36
2019-01-28T20:41:49.180Z,5.48
2019-01-28T20:44:18.523Z,5.59
2019-01-28T20:46:48.606Z,5.02
2019-01-28T20:49:18.097Z,5.24
2019-01-28T20:51:47.433Z,4.98
2019-01-28T20:54:16.826Z,5.21
2019-01-28T20:56:46.426Z,4.89
2019-01-28T20:59:15.800Z,4.82
2019-01-28T21:01:45.244Z,5.10
2019-01-28T21:04:14.584Z,4.63
2019-01-28T21:06:44.045Z,4.80
2019-01-28T21:09:13.482Z,5.35
2019-01-28T21:11:42.841Z,5.44
2019-01-28T21:14:12.218Z,5.20
2019-01-28T21:16:41.646Z,5.43
2019-01-28T21:19:11.037Z,4.91
2019-01-28T21:21:41.998Z,5.08
2019-01-28T21:24:11.775Z,4.84
2019-01-28T21:26:41.148Z,5.08
2019-01-28T21:29:10.508Z,5.13
2019-01-28T21:31:39.977Z,4.93
2019-01-28T21:34:09.322Z,4.85
2019-01-28T21:36:46.809Z,4.59
2019-01-28T21:39:16.602Z,4.54
2019-01-28T21:41:45.981Z,4.43
2019-01-28T21:44:15.332Z,4.49
2019-01-28T21:46:44.697Z,4.25
2019-01-28T21:49:14.058Z,5.09
2019-01-28T21:51:50.508Z,4.98
2019-01-28T21:54:14.555Z,5.19
2019-01-28T21:56:43.988Z,5.09
2019-01-28T21:59:13.581Z,4.99
2019-01-28T22:01:42.984Z,5.66
2019-01-28T22:04:12.395Z,6.21
2019-01-28T22:06:41.841Z,6.13
2019-01-28T22:09:11.428Z,6.36
2019-01-28T22:11:40.825Z,6.52
2019-01-28T22:14:10.306Z,6.18
2019-01-28T22:16:39.722Z,6.25
2019-01-28T22:19:09.074Z,6.47
2019-01-28T22:21:38.500Z,5.91
2019-01-28T22:24:07.888Z,5.87
2019-01-28T22:26:37.306Z,6.10
2019-01-28T22:29:06.724Z,5.85
2019-01-28T22:31:36.163Z,6.52
2019-01-28T22:34:05.733Z,6.78
2019-01-28T22:36:35.162Z,6.55
2019-01-28T22:39:07.627Z,6.57
2019-01-28T22:41:37.005Z,6.76
2019-01-28T22:44:06.436Z,6.08
2019-01-28T22:46:35.811Z,5.39
2019-01-28T22:49:05.316Z,5.43
2019-01-28T22:51:34.693Z,5.72
2019-01-28T22:54:04.349Z,5.85
2019-01-28T22:56:33.729Z,5.91
2019-01-28T22:59:03.162Z,5.74
2019-01-28T23:01:35.511Z,5.69
2019-01-28T23:04:05.857Z,5.04
2019-01-28T23:06:35.230Z,5.38
2019-01-28T23:09:09.654Z,5.22
2019-01-28T23:11:39.070Z,5.71
2019-01-28T23:14:08.619Z,5.56
2019-01-28T23:16:38.049Z,5.48
2019-01-28T23:19:07.482Z,5.69
2019-01-28T23:21:36.905Z,5.79
2019-01-28T23:24:06.411Z,5.13
2019-01-28T23:26:35.869Z,5.41
2019-01-28T23:29:06.088Z,5.92
2019-01-28T23:31:35.533Z,6.14
2019-01-28T23:34:05.358Z,5.49
2019-01-28T23:36:34.743Z,5.65
2019-01-28T23:39:05.127Z,5.87
2019-01-28T23:41:34.477Z,6.24
2019-01-28T23:44:03.958Z,6.16
2019-01-28T23:46:33.382Z,5.46
2019-01-28T23:49:02.823Z,6.16
2019-01-28T23:51:32.191Z,5.40
2019-01-28T23:54:01.571Z,5.05
2019-01-28T23:56:30.930Z,5.23
2019-01-28T23:59:00.350Z,5.77
